Time;durP1;ratioP1;P1;durP2;ratioP2;P2;SDS_P1;SDS_P2;PMS_P1;PMS_P2;Temp;Humidity;BMP_temperature;BMP_pressure;BME280_temperature;BME280_humidity;BME280_pressure;Samples;Min_cycle;Max_cycle;Signal;HPM_P1;HPM_P2
2023/03/21 00:02:03;;;;;;;46.80;41.90;;;;;;;8.82;100.00;98891.63;109550;1250;64832;-75
2023/03/21 00:04:30;;;;;;;47.20;40.90;;;;;;;8.82;100.00;98895.02;109677;1250;59885;-76
2023/03/21 00:06:57;;;;;;;47.80;42.70;;;;;;;8.82;100.00;98896.45;109264;1250;59871;-74
2023/03/21 00:09:23;;;;;;;60.00;53.70;;;;;;;8.81;100.00;98895.45;109611;1250;66574;-75
2023/03/21 00:11:50;;;;;;;66.00;59.00;;;;;;;8.80;100.00;98890.71;109583;1250;60726;-75
2023/03/21 00:14:19;;;;;;;54.00;48.00;;;;;;;8.82;100.00;98885.30;109634;1250;63675;-75
2023/03/21 00:16:49;;;;;;;45.60;40.40;;;;;;;8.83;100.00;98881.48;109630;1250;59819;-75
2023/03/21 00:19:19;;;;;;;46.40;40.30;;;;;;;8.85;100.00;98880.67;109658;1250;59725;-75
2023/03/21 00:21:46;;;;;;;47.90;42.70;;;;;;;8.86;100.00;98879.87;109655;1250;66796;-75
2023/03/21 00:24:12;;;;;;;52.80;47.00;;;;;;;8.86;100.00;98877.57;109683;1254;60245;-75
2023/03/21 00:26:39;;;;;;;49.40;42.90;;;;;;;8.87;100.00;98877.50;109617;1250;64021;-75
2023/03/21 00:29:06;;;;;;;54.90;46.00;;;;;;;8.88;100.00;98877.27;109618;1250;59774;-75
2023/03/21 00:31:33;;;;;;;44.00;38.80;;;;;;;8.89;100.00;98875.64;109701;1250;59973;-75
2023/03/21 00:34:00;;;;;;;42.80;34.70;;;;;;;8.90;100.00;98877.70;109663;1250;67467;-75
2023/03/21 00:36:27;;;;;;;43.30;36.60;;;;;;;8.91;100.00;98874.11;109393;1250;61030;-75
2023/03/21 00:38:54;;;;;;;43.00;38.00;;;;;;;8.92;100.00;98869.59;109431;1250;63454;-75
2023/03/21 00:41:21;;;;;;;47.60;40.80;;;;;;;8.92;100.00;98869.22;109607;1250;59797;-75
2023/03/21 00:43:48;;;;;;;56.50;47.40;;;;;;;8.94;100.00;98868.62;109620;1250;59826;-75
2023/03/21 00:46:15;;;;;;;57.80;47.90;;;;;;;8.94;100.00;98869.61;109647;1250;67486;-75
2023/03/21 00:48:41;;;;;;;53.00;45.50;;;;;;;8.95;100.00;98866.21;109642;1250;61133;-75
2023/03/21 00:51:14;;;;;;;50.50;43.30;;;;;;;8.95;100.00;98862.98;109612;1250;63720;-75
2023/03/21 00:53:41;;;;;;;47.00;41.90;;;;;;;8.96;100.00;98859.59;109304;1250;59783;-75
2023/03/21 00:56:08;;;;;;;49.00;41.40;;;;;;;8.96;100.00;98860.27;109664;1250;59915;-75
2023/03/21 00:58:35;;;;;;;49.30;42.50;;;;;;;8.96;100.00;98860.81;109665;1250;67922;-75
2023/03/21 01:01:03;;;;;;;51.70;42.30;;;;;;;8.96;100.00;98859.06;109653;1250;61108;-75
2023/03/21 01:03:29;;;;;;;49.70;44.20;;;;;;;8.96;100.00;98861.35;109624;1250;64683;-75
2023/03/21 01:06:05;;;;;;;47.30;42.20;;;;;;;8.96;100.00;98860.81;109668;1250;59753;-75
2023/03/21 01:08:37;;;;;;;44.70;39.00;;;;;;;8.97;100.00;98863.58;109640;1250;59823;-75
2023/03/21 01:11:08;;;;;;;47.80;38.60;;;;;;;8.97;100.00;98867.14;109301;1250;67656;-75
2023/03/21 01:13:34;;;;;;;43.20;37.70;;;;;;;8.96;100.00;98870.38;109666;1250;60773;-75
2023/03/21 01:16:04;;;;;;;43.00;37.40;;;;;;;8.94;100.00;98874.64;109653;1250;64010;-75
2023/03/21 01:18:32;;;;;;;43.80;36.90;;;;;;;8.91;100.00;98878.14;109405;1250;59915;-75
2023/03/21 01:21:00;;;;;;;43.50;38.10;;;;;;;8.88;100.00;98883.69;109638;1252;59840;-75
2023/03/21 01:23:28;;;;;;;44.50;35.60;;;;;;;8.85;100.00;98886.34;109551;1251;67777;-75
2023/03/21 01:25:56;;;;;;;39.00;33.50;;;;;;;8.83;100.00;98888.60;109644;1250;61131;-75
2023/03/21 01:28:26;;;;;;;44.00;37.90;;;;;;;8.79;100.00;98888.96;109616;1250;64755;-75
2023/03/21 01:30:53;;;;;;;40.20;34.80;;;;;;;8.78;100.00;98890.12;109602;1250;59796;-75
2023/03/21 01:33:23;;;;;;;37.50;33.20;;;;;;;8.76;100.00;98889.02;109672;1250;59780;-75
2023/03/21 01:35:50;;;;;;;40.00;35.50;;;;;;;8.74;100.00;98887.33;109519;1250;66955;-75
2023/03/21 01:38:16;;;;;;;40.80;34.30;;;;;;;8.74;100.00;98892.52;109663;1250;59820;-75
2023/03/21 01:40:48;;;;;;;43.50;34.60;;;;;;;8.72;100.00;98894.21;109253;1250;64994;-75
2023/03/21 01:43:29;;;;;;;37.50;32.30;;;;;;;8.71;100.00;98893.03;109634;1250;59805;-75
2023/03/21 01:46:09;;;;;;;39.90;34.40;;;;;;;8.69;100.00;98890.98;109640;1250;59947;-75
2023/03/21 01:48:40;;;;;;;36.20;30.90;;;;;;;8.68;100.00;98891.09;109620;1250;67207;-75
2023/03/21 01:51:12;;;;;;;37.40;31.40;;;;;;;8.65;100.00;98891.63;109656;1250;60728;-75
2023/03/21 01:53:40;;;;;;;39.80;30.70;;;;;;;8.64;100.00;98893.30;109643;1250;62517;-75
2023/03/21 01:56:22;;;;;;;38.00;31.70;;;;;;;8.62;100.00;98892.36;109597;1250;59889;-75
2023/03/21 01:58:54;;;;;;;38.30;31.70;;;;;;;8.59;100.00;98890.58;109651;1250;59822;-75
2023/03/21 02:01:21;;;;;;;36.20;30.90;;;;;;;8.56;100.00;98890.40;109710;1250;67943;-75
2023/03/21 02:03:50;;;;;;;35.50;29.30;;;;;;;8.54;100.00;98888.74;109629;1250;60729;-75
2023/03/21 02:06:39;;;;;;;35.70;30.10;;;;;;;8.52;100.00;98887.77;109610;1250;64722;-75
2023/03/21 02:09:11;;;;;;;40.20;30.50;;;;;;;8.50;100.00;98877.24;109682;1251;59768;-75
2023/03/21 02:11:38;;;;;;;45.20;32.90;;;;;;;8.49;100.00;98880.54;109630;1250;59760;-75
2023/03/21 02:14:05;;;;;;;47.80;36.70;;;;;;;8.47;100.00;98881.52;109626;1250;67490;-75
2023/03/21 02:16:38;;;;;;;55.20;42.70;;;;;;;8.46;100.00;98875.23;109690;1250;61099;-75
2023/03/21 02:19:18;;;;;;;52.10;40.00;;;;;;;8.46;100.00;98874.39;109648;1250;63771;-75
2023/03/21 02:22:13;;;;;;;49.00;38.50;;;;;;;8.44;100.00;98876.08;109627;1250;59819;-75
2023/03/21 02:24:53;;;;;;;50.10;38.50;;;;;;;8.42;100.00;98874.08;109682;1250;60231;-75
2023/03/21 02:27:20;;;;;;;;;;;;;;;8.42;100.00;98872.83;109660;1250;67491;-75
2023/03/21 02:30:25;;;;;;;47.80;38.50;;;;;;;8.42;100.00;98868.42;109639;1250;59896;-75
2023/03/21 02:33:18;;;;;;;51.80;41.70;;;;;;;8.41;100.00;98861.73;109632;1250;63781;-75
2023/03/21 02:36:13;;;;;;;52.00;39.70;;;;;;;8.41;100.00;98864.55;109645;1250;59789;-75
2023/03/21 02:38:51;;;;;;;45.40;36.80;;;;;;;8.41;100.00;98862.79;109660;1250;59770;-75
2023/03/21 02:41:39;;;;;;;43.90;36.40;;;;;;;8.40;100.00;98859.67;109661;1250;67811;-75
2023/03/21 02:44:31;;;;;;;41.60;34.50;;;;;;;8.39;100.00;98862.58;109634;1250;60793;-75
2023/03/21 02:47:04;;;;;;;44.70;38.50;;;;;;;8.37;100.00;98864.61;109621;1250;64700;-75
2023/03/21 02:49:43;;;;;;;41.50;35.50;;;;;;;8.35;100.00;98862.39;109658;1250;59782;-75
2023/03/21 02:52:14;;;;;;;36.00;30.50;;;;;;;8.33;100.00;98861.43;109639;1250;59979;-75
2023/03/21 02:54:43;;;;;;;41.70;33.80;;;;;;;8.31;100.00;98863.52;109682;1250;66523;-75
2023/03/21 02:57:10;;;;;;;39.40;32.50;;;;;;;8.30;100.00;98864.67;109695;1250;59832;-75
2023/03/21 02:59:38;;;;;;;38.00;31.50;;;;;;;8.27;100.00;98864.27;109700;1250;65086;-75
2023/03/21 03:02:05;;;;;;;40.30;32.80;;;;;;;8.26;100.00;98868.09;109626;1250;59957;-75
2023/03/21 03:04:32;;;;;;;37.70;32.00;;;;;;;8.24;100.00;98870.84;109293;1250;60075;-75
2023/03/21 03:07:40;;;;;;;40.10;31.60;;;;;;;8.22;100.00;98872.60;109644;1250;67690;-75
2023/03/21 03:10:06;;;;;;;39.20;31.00;;;;;;;8.17;100.00;98873.05;109663;1250;60789;-75
2023/03/21 03:12:53;;;;;;;38.80;34.00;;;;;;;8.14;100.00;98869.83;109679;1250;65085;-75
2023/03/21 03:15:29;;;;;;;48.20;35.90;;;;;;;8.12;100.00;98871.01;109609;1250;59847;-75
2023/03/21 03:18:06;;;;;;;46.30;36.40;;;;;;;8.11;100.00;98874.08;109653;1250;59845;-75
2023/03/21 03:20:47;;;;;;;40.10;32.60;;;;;;;8.11;100.00;98875.52;109663;1250;67810;-75
2023/03/21 03:24:02;;;;;;;43.70;35.60;;;;;;;8.10;100.00;98874.70;109572;1250;60906;-75
2023/03/21 03:26:46;;;;;;;42.70;33.90;;;;;;;8.07;100.00;98873.96;108939;1257;65142;-75
2023/03/21 03:29:16;;;;;;;44.80;34.50;;;;;;;8.07;100.00;98876.48;108979;1257;60121;-75
2023/03/21 03:31:56;;;;;;;42.90;33.20;;;;;;;8.06;100.00;98871.73;108962;1257;60096;-75
2023/03/21 03:34:27;;;;;;;41.00;33.30;;;;;;;8.05;100.00;98868.27;109012;1257;67778;-75
2023/03/21 03:36:58;;;;;;;38.90;32.00;;;;;;;8.03;100.00;98867.70;108987;1257;60074;-75
2023/03/21 03:39:47;;;;;;;39.10;33.00;;;;;;;8.00;100.00;98865.34;108933;1257;63963;-75
2023/03/21 03:42:18;;;;;;;36.90;30.30;;;;;;;7.99;100.00;98866.88;108739;1263;60266;-75
2023/03/21 03:44:46;;;;;;;41.70;34.40;;;;;;;7.97;100.00;98864.33;108738;1264;60340;-75
2023/03/21 03:47:33;;;;;;;44.30;35.60;;;;;;;7.95;100.00;98858.05;108716;1264;67481;-75
2023/03/21 03:50:08;;;;;;;42.20;32.60;;;;;;;7.94;100.00;98857.95;108747;1264;60189;-75
2023/03/21 03:52:50;;;;;;;41.40;32.60;;;;;;;7.90;100.00;98859.73;108727;1263;63731;-75
2023/03/21 03:55:20;;;;;;;41.50;34.10;;;;;;;7.88;100.00;98864.27;108704;1264;59930;-75
2023/03/21 03:57:48;;;;;;;35.90;30.40;;;;;;;7.86;100.00;98863.89;108638;1264;59857;-75
2023/03/21 04:00:16;;;;;;;39.20;31.60;;;;;;;7.82;100.00;98863.58;108720;1262;66865;-75
2023/03/21 04:02:42;;;;;;;36.40;31.30;;;;;;;7.79;100.00;98863.22;108856;1259;60213;-75
2023/03/21 04:05:09;;;;;;;36.20;30.60;;;;;;;7.77;100.00;98866.54;108922;1258;63974;-75
2023/03/21 04:07:36;;;;;;;36.90;30.50;;;;;;;7.76;100.00;98869.26;108923;1258;59798;-75
2023/03/21 04:10:04;;;;;;;34.60;29.90;;;;;;;7.74;100.00;98868.62;108905;1259;59941;-75
2023/03/21 04:12:30;;;;;;;34.70;28.30;;;;;;;7.72;100.00;98867.34;108902;1259;66477;-75
2023/03/21 04:14:57;;;;;;;33.90;28.40;;;;;;;7.71;100.00;98864.20;108931;1259;59897;-75
2023/03/21 04:17:23;;;;;;;30.20;27.00;;;;;;;7.69;100.00;98864.00;108931;1258;64125;-75
2023/03/21 04:19:50;;;;;;;31.60;28.10;;;;;;;7.65;100.00;98867.19;109048;1252;59902;-75
2023/03/21 04:22:17;;;;;;;32.30;28.40;;;;;;;7.62;100.00;98868.77;109502;1254;59735;-75
2023/03/21 04:24:44;;;;;;;34.70;30.70;;;;;;;7.59;100.00;98869.65;109496;1253;67504;-75
2023/03/21 04:27:10;;;;;;;35.60;32.10;;;;;;;7.56;100.00;98870.20;109287;1253;59909;-75
2023/03/21 04:29:37;;;;;;;28.40;25.60;;;;;;;7.54;100.00;98871.02;109504;1253;63731;-75
2023/03/21 04:32:05;;;;;;;26.80;24.10;;;;;;;7.51;100.00;98868.88;109486;1252;59658;-75
2023/03/21 04:34:31;;;;;;;22.60;20.20;;;;;;;7.50;100.00;98864.55;109508;1253;59806;-75
2023/03/21 04:36:58;;;;;;;23.40;21.10;;;;;;;7.49;100.00;98858.39;109521;1254;67553;-75
2023/03/21 04:39:24;;;;;;;25.00;22.30;;;;;;;7.47;100.00;98860.96;109540;1252;60909;-75
2023/03/21 04:41:52;;;;;;;27.40;24.60;;;;;;;7.46;100.00;98866.52;109541;1251;64152;-75
2023/03/21 04:44:19;;;;;;;25.90;23.20;;;;;;;7.45;100.00;98865.16;109623;1251;59758;-75
2023/03/21 04:46:46;;;;;;;22.90;20.40;;;;;;;7.45;100.00;98867.98;109657;1251;59725;-75
2023/03/21 04:49:12;;;;;;;22.50;20.20;;;;;;;7.45;100.00;98867.63;109663;1250;67745;-75
2023/03/21 04:51:40;;;;;;;26.40;23.90;;;;;;;7.44;100.00;98863.95;109596;1250;60092;-75
2023/03/21 04:54:06;;;;;;;22.30;20.00;;;;;;;7.44;100.00;98862.70;109611;1250;65082;-75
2023/03/21 04:56:34;;;;;;;21.00;18.70;;;;;;;7.44;100.00;98859.73;109667;1250;60150;-75
2023/03/21 04:59:08;;;;;;;20.70;18.60;;;;;;;7.44;100.00;98864.48;109661;1250;59797;-75
2023/03/21 05:01:34;;;;;;;24.30;21.70;;;;;;;7.44;100.00;98867.11;109670;1251;67644;-75
2023/03/21 05:04:03;;;;;;;22.70;20.30;;;;;;;7.44;100.00;98868.02;109599;1251;59839;-75
2023/03/21 05:06:30;;;;;;;22.40;20.10;;;;;;;7.44;100.00;98868.54;109655;1250;65212;-75
2023/03/21 05:08:58;;;;;;;22.30;20.10;;;;;;;7.44;100.00;98866.60;109625;1252;59974;-75
2023/03/21 05:11:27;;;;;;;22.80;20.50;;;;;;;7.45;100.00;98865.13;109468;1251;59832;-75
2023/03/21 05:13:54;;;;;;;24.10;21.50;;;;;;;7.48;100.00;98869.07;109661;1250;66734;-75
2023/03/21 05:16:24;;;;;;;33.80;30.50;;;;;;;7.50;100.00;98869.66;109635;1251;60058;-75
2023/03/21 05:18:52;;;;;;;32.40;29.20;;;;;;;7.52;100.00;98867.95;109383;1251;64062;-75
2023/03/21 05:21:22;;;;;;;31.70;28.30;;;;;;;7.54;100.00;98865.19;109618;1251;59740;-75
2023/03/21 05:23:57;;;;;;;29.70;26.60;;;;;;;7.56;100.00;98865.61;109594;1251;60378;-75
2023/03/21 05:26:24;;;;;;;26.30;23.50;;;;;;;7.59;100.00;98873.58;109622;1251;68268;-75
2023/03/21 05:28:50;;;;;;;30.30;27.20;;;;;;;7.60;100.00;98874.58;109668;1251;60706;-75
2023/03/21 05:31:18;;;;;;;33.40;30.20;;;;;;;7.62;100.00;98872.14;109294;1251;65141;-75
2023/03/21 05:33:45;;;;;;;31.50;28.30;;;;;;;7.65;100.00;98871.28;109589;1250;59820;-75
2023/03/21 05:36:13;;;;;;;28.60;25.60;;;;;;;7.68;100.00;98874.65;109599;1251;60049;-75
2023/03/21 05:38:44;;;;;;;29.60;24.40;;;;;;;7.72;100.00;98876.52;109643;1251;67744;-75
2023/03/21 05:41:15;;;;;;;23.40;20.90;;;;;;;7.76;100.00;98877.73;109594;1250;60718;-75
2023/03/21 05:43:43;;;;;;;23.50;20.80;;;;;;;7.79;100.00;98879.13;109471;1250;64090;-75
2023/03/21 05:46:10;;;;;;;23.20;20.80;;;;;;;7.84;100.00;98880.11;109575;1250;59805;-75
2023/03/21 05:48:37;;;;;;;23.20;20.80;;;;;;;7.88;100.00;98878.10;109627;1251;59927;-75
2023/03/21 05:51:04;;;;;;;23.30;20.90;;;;;;;7.96;100.00;98878.71;109636;1250;66450;-75
2023/03/21 05:53:31;;;;;;;20.90;18.70;;;;;;;8.05;100.00;98882.41;109650;1251;59841;-75
2023/03/21 05:55:57;;;;;;;19.50;16.10;;;;;;;8.14;100.00;98880.67;109615;1251;62492;-75
2023/03/21 05:58:24;;;;;;;18.70;16.30;;;;;;;8.20;100.00;98880.48;109598;1251;59810;-75
2023/03/21 06:00:50;;;;;;;24.40;22.00;;;;;;;8.27;100.00;98879.01;109623;1250;59782;-75
2023/03/21 06:03:17;;;;;;;20.60;18.40;;;;;;;8.34;100.00;98873.45;109599;1250;67842;-76
2023/03/21 06:05:44;;;;;;;18.70;16.70;;;;;;;8.41;100.00;98870.04;109649;1251;60108;-75
2023/03/21 06:08:10;;;;;;;18.80;16.80;;;;;;;8.47;100.00;98873.94;109624;1250;64017;-75
2023/03/21 06:10:37;;;;;;;19.30;17.30;;;;;;;8.50;100.00;98876.23;109585;1250;59812;-75
2023/03/21 06:13:04;;;;;;;21.90;18.80;;;;;;;8.51;100.00;98881.28;109619;1250;59945;-75
2023/03/21 06:15:30;;;;;;;23.50;21.20;;;;;;;8.56;100.00;98883.32;109624;1251;65879;-75
2023/03/21 06:17:57;;;;;;;22.00;19.20;;;;;;;8.65;100.00;98883.85;109586;1251;60980;-75
2023/03/21 06:20:24;;;;;;;27.70;24.80;;;;;;;8.74;100.00;98881.16;109616;1251;65115;-75
2023/03/21 06:22:50;;;;;;;26.60;23.80;;;;;;;8.86;100.00;98881.65;109605;1251;59796;-75
2023/03/21 06:25:17;;;;;;;25.40;22.30;;;;;;;9.02;100.00;98880.30;109639;1251;60027;-75
2023/03/21 06:27:44;;;;;;;25.50;20.60;;;;;;;9.22;100.00;98880.50;109651;1251;67741;-75
2023/03/21 06:30:11;;;;;;;22.00;19.00;;;;;;;9.41;100.00;98879.42;109638;1251;60436;-75
2023/03/21 06:32:38;;;;;;;23.60;20.40;;;;;;;9.57;100.00;98879.30;109600;1250;65294;-75
2023/03/21 06:35:05;;;;;;;21.90;17.90;;;;;;;9.69;100.00;98878.54;109547;1251;59686;-75
2023/03/21 06:37:32;;;;;;;20.80;18.30;;;;;;;9.81;100.00;98878.44;109411;1250;59864;-76
2023/03/21 06:39:58;;;;;;;21.20;17.90;;;;;;;9.94;100.00;98879.52;109606;1251;68311;-76
2023/03/21 06:42:25;;;;;;;24.20;21.20;;;;;;;10.07;100.00;98882.20;109615;1251;61264;-76
2023/03/21 06:44:52;;;;;;;22.90;20.70;;;;;;;10.19;100.00;98882.86;109619;1251;64985;-76
2023/03/21 06:47:18;;;;;;;20.30;15.50;;;;;;;10.22;100.00;98881.60;109608;1250;59978;-76
2023/03/21 06:49:45;;;;;;;17.60;15.70;;;;;;;10.25;100.00;98883.16;109611;1250;59829;-76
2023/03/21 06:52:11;;;;;;;16.10;13.80;;;;;;;10.27;100.00;98880.73;109638;1250;66601;-76
2023/03/21 06:54:38;;;;;;;18.00;14.00;;;;;;;10.32;100.00;98878.63;109608;1251;60684;-76
2023/03/21 06:57:05;;;;;;;15.00;12.50;;;;;;;10.39;100.00;98883.84;109629;1251;63661;-75
2023/03/21 06:59:31;;;;;;;14.20;12.10;;;;;;;10.45;100.00;98884.87;109655;1250;59823;-75
2023/03/21 07:01:58;;;;;;;13.80;11.60;;;;;;;10.47;100.00;98883.12;109617;1250;59786;-75
2023/03/21 07:04:25;;;;;;;11.90;9.90;;;;;;;10.47;100.00;98880.63;109621;1250;67682;-75
2023/03/21 07:06:52;;;;;;;11.10;9.90;;;;;;;10.46;100.00;98886.05;109597;1251;61485;-75
2023/03/21 07:09:28;;;;;;;12.60;11.40;;;;;;;10.41;100.00;98885.30;109602;1250;64702;-75
2023/03/21 07:11:55;;;;;;;12.00;10.70;;;;;;;10.40;100.00;98888.61;109633;1251;59740;-75
2023/03/21 07:14:22;;;;;;;9.30;8.40;;;;;;;10.41;100.00;98888.14;109580;1251;59769;-75
2023/03/21 07:16:49;;;;;;;10.10;9.10;;;;;;;10.43;100.00;98890.86;109613;1250;67782;-75
2023/03/21 07:19:15;;;;;;;9.70;8.70;;;;;;;10.46;100.00;98900.09;109654;1250;60195;-75
2023/03/21 07:21:42;;;;;;;10.80;8.80;;;;;;;10.46;100.00;98897.52;109626;1250;64708;-76
2023/03/21 07:24:09;;;;;;;10.60;9.40;;;;;;;10.47;100.00;98898.00;109359;1250;59971;-75
2023/03/21 07:26:35;;;;;;;12.00;9.70;;;;;;;10.47;100.00;98899.43;109561;1251;59932;-75
2023/03/21 07:29:02;;;;;;;13.30;11.20;;;;;;;10.52;100.00;98899.48;109590;1250;66478;-75
2023/03/21 07:31:29;;;;;;;10.80;9.70;;;;;;;10.57;100.00;98901.27;109619;1251;59852;-75
2023/03/21 07:33:55;;;;;;;10.90;9.90;;;;;;;10.62;100.00;98901.50;109613;1250;64835;-75
2023/03/21 07:36:22;;;;;;;10.50;9.40;;;;;;;10.69;100.00;98904.72;109555;1251;59790;-75
2023/03/21 07:38:49;;;;;;;10.90;8.90;;;;;;;10.70;100.00;98905.12;109648;1250;59814;-75
2023/03/21 07:41:16;;;;;;;9.50;8.50;;;;;;;10.70;100.00;98902.66;109674;1250;67570;-75
2023/03/21 07:43:43;;;;;;;9.30;8.40;;;;;;;10.64;100.00;98907.33;109665;1250;60931;-75
2023/03/21 07:46:09;;;;;;;11.90;10.70;;;;;;;10.56;100.00;98910.95;109619;1250;65222;-75
2023/03/21 07:48:36;;;;;;;13.40;12.00;;;;;;;10.45;100.00;98908.83;109404;1250;59828;-75
2023/03/21 07:51:05;;;;;;;21.50;19.40;;;;;;;10.37;100.00;98909.20;109596;1250;59686;-75
2023/03/21 07:53:31;;;;;;;24.20;21.70;;;;;;;10.34;100.00;98912.42;109614;1250;67530;-75
2023/03/21 07:55:58;;;;;;;22.60;20.30;;;;;;;10.34;100.00;98916.31;109552;1250;69513;-75
2023/03/21 07:58:26;;;;;;;25.00;22.50;;;;;;;10.33;100.00;98918.33;109653;1250;64722;-75
2023/03/21 08:00:54;;;;;;;19.40;17.50;;;;;;;10.32;100.00;98921.04;109621;1251;59765;-76
2023/03/21 08:03:22;;;;;;;18.10;15.80;;;;;;;10.29;100.00;98921.94;109414;1250;60278;-75
2023/03/21 08:05:49;;;;;;;20.60;16.70;;;;;;;10.26;100.00;98923.56;109484;1250;67933;-76
2023/03/21 08:08:16;;;;;;;20.60;16.80;;;;;;;10.28;100.00;98926.87;109660;1250;60817;-75
2023/03/21 08:10:48;;;;;;;20.60;15.60;;;;;;;10.30;100.00;98927.62;109500;1250;63898;-76
2023/03/21 08:13:14;;;;;;;19.00;15.80;;;;;;;10.36;100.00;98928.45;109613;1250;59884;-75
2023/03/21 08:15:41;;;;;;;17.30;15.50;;;;;;;10.32;100.00;98930.27;109565;1250;59734;-75
2023/03/21 08:18:09;;;;;;;18.90;16.40;;;;;;;10.22;100.00;98930.93;109642;1250;67882;-75
2023/03/21 08:20:36;;;;;;;18.90;16.20;;;;;;;10.17;100.00;98933.09;109630;1250;60176;-76
2023/03/21 08:23:03;;;;;;;19.80;17.70;;;;;;;10.12;100.00;98933.38;109652;1250;64169;-75
2023/03/21 08:25:30;;;;;;;18.70;16.70;;;;;;;10.06;100.00;98933.96;109628;1250;59753;-76
2023/03/21 08:27:57;;;;;;;18.60;16.60;;;;;;;9.99;100.00;98936.55;109580;1250;59725;-75
2023/03/21 08:30:26;;;;;;;21.80;17.70;;;;;;;9.92;100.00;98937.02;109581;1250;67627;-76
2023/03/21 08:32:58;;;;;;;20.40;17.90;;;;;;;9.87;100.00;98935.18;109565;1250;60505;-74
2023/03/21 08:35:25;;;;;;;25.50;21.40;;;;;;;9.88;100.00;98935.48;109586;1250;63790;-74
2023/03/21 08:37:52;;;;;;;24.40;20.70;;;;;;;9.92;100.00;98939.85;109580;1250;59680;-74
2023/03/21 08:40:19;;;;;;;21.20;18.80;;;;;;;9.98;100.00;98942.62;109368;1255;59737;-74
2023/03/21 08:42:46;;;;;;;23.50;19.40;;;;;;;10.04;100.00;98944.88;109603;1250;66975;-74
2023/03/21 08:45:17;;;;;;;21.40;19.00;;;;;;;10.14;100.00;98945.30;109560;1250;61222;-74
2023/03/21 08:47:44;;;;;;;21.40;18.90;;;;;;;10.23;100.00;98945.82;109542;1250;65096;-74
2023/03/21 08:50:17;;;;;;;23.90;21.40;;;;;;;10.27;100.00;98948.57;109600;1250;59830;-75
2023/03/21 08:52:44;;;;;;;22.60;20.20;;;;;;;10.27;100.00;98948.03;109683;1250;59887;-74
2023/03/21 08:55:11;;;;;;;23.20;20.70;;;;;;;10.31;100.00;98950.45;109585;1250;67733;-75
2023/03/21 08:57:38;;;;;;;24.80;21.90;;;;;;;10.37;100.00;98951.14;109559;1250;59802;-75
2023/03/21 09:00:11;;;;;;;26.20;23.40;;;;;;;10.41;100.00;98953.34;109348;1250;64703;-75
2023/03/21 09:02:39;;;;;;;25.90;23.10;;;;;;;10.45;100.00;98954.65;109459;1250;59835;-74
2023/03/21 09:05:06;;;;;;;26.80;24.00;;;;;;;10.51;100.00;98956.00;109415;1250;59846;-74
2023/03/21 09:07:35;;;;;;;25.60;22.90;;;;;;;10.61;100.00;98955.21;109594;1250;67756;-74
2023/03/21 09:10:03;;;;;;;25.30;22.70;;;;;;;10.75;100.00;98954.73;109596;1250;60810;-75
2023/03/21 09:12:30;;;;;;;25.20;22.50;;;;;;;10.89;100.00;98955.75;109609;1250;64694;-75
2023/03/21 09:14:56;;;;;;;24.50;21.90;;;;;;;11.01;100.00;98954.73;109615;1251;59812;-75
2023/03/21 09:17:23;;;;;;;23.50;21.10;;;;;;;11.14;100.00;98953.83;109612;1250;59871;-75
2023/03/21 09:19:50;;;;;;;24.40;21.90;;;;;;;11.23;100.00;98956.23;109622;1250;66435;-75
2023/03/21 09:22:17;;;;;;;25.50;22.90;;;;;;;11.26;100.00;98956.06;109620;1250;60690;-75
2023/03/21 09:24:46;;;;;;;25.40;22.80;;;;;;;11.30;100.00;98955.05;109554;1250;64960;-75
2023/03/21 09:27:16;;;;;;;24.00;21.50;;;;;;;11.24;100.00;98959.17;109549;1250;59781;-75
2023/03/21 09:29:43;;;;;;;25.00;22.30;;;;;;;11.20;100.00;98960.02;109589;1250;59823;-74
2023/03/21 09:32:11;;;;;;;25.10;22.20;;;;;;;11.19;100.00;98964.52;109617;1250;66989;-75
2023/03/21 09:34:40;;;;;;;28.10;23.70;;;;;;;11.22;100.00;98965.02;109641;1250;60698;-75
2023/03/21 09:37:11;;;;;;;26.80;23.90;;;;;;;11.25;100.00;98964.86;109408;1250;63653;-74
2023/03/21 09:39:41;;;;;;;26.30;23.40;;;;;;;11.28;100.00;98966.20;109610;1250;59726;-75
2023/03/21 09:42:18;;;;;;;26.70;23.40;;;;;;;11.37;100.00;98964.14;109616;1250;59800;-74
2023/03/21 09:44:54;;;;;;;26.70;23.90;;;;;;;11.45;100.00;98965.58;109599;1250;67803;-74
2023/03/21 09:47:33;;;;;;;26.20;23.40;;;;;;;11.58;100.00;98963.73;109344;1250;59840;-75
2023/03/21 09:50:03;;;;;;;26.10;23.30;;;;;;;11.72;100.00;98966.11;109594;1250;64705;-75
2023/03/21 09:52:46;;;;;;;25.60;22.80;;;;;;;11.76;100.00;98966.73;109599;1250;59765;-75
2023/03/21 09:55:17;;;;;;;28.60;24.90;;;;;;;11.75;100.00;98967.46;109616;1250;59824;-75
2023/03/21 09:57:47;;;;;;;27.20;23.50;;;;;;;11.84;100.00;98965.80;109684;1250;67858;-75
2023/03/21 10:00:24;;;;;;;25.80;22.90;;;;;;;11.90;100.00;98971.24;109631;1250;59750;-76
2023/03/21 10:02:54;;;;;;;24.70;20.50;;;;;;;11.97;100.00;98969.87;109642;1250;63811;-75
2023/03/21 10:05:24;;;;;;;;;;;;;;;11.95;100.00;98971.39;109621;1250;59810;-76
2023/03/21 10:08:04;;;;;;;25.80;23.10;;;;;;;11.80;100.00;98970.00;109654;1250;59797;-76
2023/03/21 10:10:44;;;;;;;27.60;24.70;;;;;;;11.68;100.00;98972.63;109614;1250;67725;-76
2023/03/21 10:13:20;;;;;;;27.40;24.50;;;;;;;11.58;100.00;98970.83;109601;1250;61101;-76
2023/03/21 10:15:47;;;;;;;27.20;24.10;;;;;;;11.56;100.00;98969.21;109571;1250;64727;-76
2023/03/21 10:18:23;;;;;;;24.60;22.00;;;;;;;11.58;100.00;98966.00;109580;1250;59754;-76
2023/03/21 10:20:50;;;;;;;26.70;23.90;;;;;;;11.57;100.00;98969.13;109449;1250;59817;-76
2023/03/21 10:23:21;;;;;;;26.00;23.20;;;;;;;11.47;100.00;98968.24;109567;1250;67721;-76
2023/03/21 10:25:58;;;;;;;30.10;25.50;;;;;;;11.36;100.00;98969.52;109624;1250;59881;-76
2023/03/21 10:28:32;;;;;;;26.00;22.60;;;;;;;11.28;100.00;98971.17;109616;1250;64698;-76
2023/03/21 10:31:03;;;;;;;25.40;22.20;;;;;;;11.20;100.00;98972.96;109566;1250;59785;-76
2023/03/21 10:33:35;;;;;;;26.10;22.40;;;;;;;11.29;100.00;98972.73;109484;1250;59759;-76
2023/03/21 10:36:08;;;;;;;24.50;21.70;;;;;;;11.48;100.00;98972.13;109552;1250;67080;-76
2023/03/21 10:38:42;;;;;;;23.90;20.80;;;;;;;11.61;100.00;98974.34;109671;1250;60736;-76
2023/03/21 10:41:10;;;;;;;24.70;20.60;;;;;;;11.62;100.00;98972.48;109577;1250;63751;-76
2023/03/21 10:43:39;;;;;;;25.00;21.10;;;;;;;11.55;100.00;98974.62;109570;1250;59741;-76
2023/03/21 10:46:17;;;;;;;23.00;20.70;;;;;;;11.53;100.00;98973.14;109616;1250;59993;-76
2023/03/21 10:48:51;;;;;;;26.80;21.50;;;;;;;11.48;100.00;98973.34;109605;1250;66746;-76
2023/03/21 10:51:31;;;;;;;26.00;23.10;;;;;;;11.36;100.00;98975.42;108966;1250;887529;-76
2023/03/21 10:54:04;;;;;;;25.80;22.00;;;;;;;11.34;100.00;98977.91;109594;1250;65036;-76
2023/03/21 10:56:43;;;;;;;26.50;21.90;;;;;;;11.40;100.00;98972.60;109583;1250;59823;-76
2023/03/21 10:59:17;;;;;;;28.70;23.30;;;;;;;11.49;100.00;98974.16;109639;1250;59752;-76
2023/03/21 11:01:49;;;;;;;28.70;25.30;;;;;;;11.55;100.00;98971.76;109169;1250;66590;-76
2023/03/21 11:04:24;;;;;;;25.30;22.40;;;;;;;11.66;100.00;98969.24;109619;1250;61808;-76
2023/03/21 11:07:02;;;;;;;28.30;23.80;;;;;;;11.70;100.00;98967.48;109618;1250;62496;-76
2023/03/21 11:09:59;;;;;;;28.40;23.40;;;;;;;11.69;100.00;98968.66;109613;1250;59783;-76
2023/03/21 11:12:36;;;;;;;26.90;24.20;;;;;;;11.72;100.00;98972.17;109621;1250;59819;-76
2023/03/21 11:15:29;;;;;;;28.60;24.70;;;;;;;11.79;100.00;98972.34;109598;1250;65540;-76
2023/03/21 11:18:16;;;;;;;31.10;26.10;;;;;;;11.78;100.00;98969.54;109617;1250;60908;-76
2023/03/21 11:20:58;;;;;;;29.30;23.90;;;;;;;11.77;100.00;98972.14;109422;1250;64709;-76
2023/03/21 11:23:27;;;;;;;32.40;26.40;;;;;;;11.76;100.00;98972.79;109590;1250;59806;-76